Terminal Aerodrome Forecast
Issued by NWS

Home | Current Version | Previous Version | Graphics & Text | Print | Product List | Glossary On
Versions: 1 2 3 4 5 6 7 8 9 10 11 12 13 14 15 16 17 18 19 20 21 22 23 24 25 26 27 28 29 30 31 32 33 34 35 36 37
000
FTUS43 KLOT 311700
TAFORD
TAF
KORD 311728Z 3118/0124 26010G15KT P6SM FEW050
     FM311900 26011G15KT P6SM BKN060
     FM010200 24003KT P6SM SCT060 SCT250
     FM011600 25005KT P6SM VCSH BKN050 PROB30 0117/0121 5SM -TSRA
      BKN045CB
     FM012100 06007KT P6SM VCSH BKN050=

USA.gov is the U.S. government's official web portal to all federal, state and local government web resources and services.